sensor_id;sensor_type;location;lat;lon;timestamp;temperature;humidity
18281;DHT22;9266;51.132;17.062;2023-10-08T00:02:23;10.80;99.90
18281;DHT22;9266;51.132;17.062;2023-10-08T00:04:52;10.70;99.90
18281;DHT22;9266;51.132;17.062;2023-10-08T00:07:20;10.70;99.90
18281;DHT22;9266;51.132;17.062;2023-10-08T00:09:48;10.60;99.90
18281;DHT22;9266;51.132;17.062;2023-10-08T00:12:16;10.70;99.90
18281;DHT22;9266;51.132;17.062;2023-10-08T00:14:45;10.70;99.90
18281;DHT22;9266;51.132;17.062;2023-10-08T00:17:16;10.70;99.90
18281;DHT22;9266;51.132;17.062;2023-10-08T00:19:44;10.60;99.90
18281;DHT22;9266;51.132;17.062;2023-10-08T00:22:11;10.60;99.90
18281;DHT22;9266;51.132;17.062;2023-10-08T00:24:44;10.50;99.90
18281;DHT22;9266;51.132;17.062;2023-10-08T00:27:12;10.50;99.90
18281;DHT22;9266;51.132;17.062;2023-10-08T00:29:40;10.50;99.90
18281;DHT22;9266;51.132;17.062;2023-10-08T00:32:09;10.50;99.90
18281;DHT22;9266;51.132;17.062;2023-10-08T00:34:41;10.50;99.90
18281;DHT22;9266;51.132;17.062;2023-10-08T00:37:09;10.50;99.90
18281;DHT22;9266;51.132;17.062;2023-10-08T00:39:40;10.50;99.90
18281;DHT22;9266;51.132;17.062;2023-10-08T00:42:07;10.50;99.90
18281;DHT22;9266;51.132;17.062;2023-10-08T00:44:34;10.50;99.90
18281;DHT22;9266;51.132;17.062;2023-10-08T00:47:07;10.50;99.90
18281;DHT22;9266;51.132;17.062;2023-10-08T00:49:37;10.50;99.90
18281;DHT22;9266;51.132;17.062;2023-10-08T00:52:21;10.50;99.90
18281;DHT22;9266;51.132;17.062;2023-10-08T00:55:04;10.60;99.90
18281;DHT22;9266;51.132;17.062;2023-10-08T00:57:40;10.50;99.90
18281;DHT22;9266;51.132;17.062;2023-10-08T01:00:13;10.50;99.90
18281;DHT22;9266;51.132;17.062;2023-10-08T01:02:46;10.40;99.90
18281;DHT22;9266;51.132;17.062;2023-10-08T01:05:21;10.40;99.90
18281;DHT22;9266;51.132;17.062;2023-10-08T01:07:53;10.40;99.90
18281;DHT22;9266;51.132;17.062;2023-10-08T01:10:21;10.50;99.90
18281;DHT22;9266;51.132;17.062;2023-10-08T01:12:50;11.40;99.90
18281;DHT22;9266;51.132;17.062;2023-10-08T01:15:31;10.40;99.90
18281;DHT22;9266;51.132;17.062;2023-10-08T01:18:02;10.40;99.90
18281;DHT22;9266;51.132;17.062;2023-10-08T01:20:31;10.40;99.90
18281;DHT22;9266;51.132;17.062;2023-10-08T01:23:05;10.40;99.90
18281;DHT22;9266;51.132;17.062;2023-10-08T01:25:36;9.10;99.90
18281;DHT22;9266;51.132;17.062;2023-10-08T01:28:05;10.50;99.90
18281;DHT22;9266;51.132;17.062;2023-10-08T01:30:40;10.50;99.90
18281;DHT22;9266;51.132;17.062;2023-10-08T01:33:08;10.40;99.90
18281;DHT22;9266;51.132;17.062;2023-10-08T01:35:39;10.40;99.90
18281;DHT22;9266;51.132;17.062;2023-10-08T01:38:07;10.40;99.90
18281;DHT22;9266;51.132;17.062;2023-10-08T01:40:39;10.40;99.90
18281;DHT22;9266;51.132;17.062;2023-10-08T01:43:07;10.30;99.90
18281;DHT22;9266;51.132;17.062;2023-10-08T01:45:36;10.30;99.90
18281;DHT22;9266;51.132;17.062;2023-10-08T01:48:06;10.20;99.90
18281;DHT22;9266;51.132;17.062;2023-10-08T01:50:35;10.10;99.90
18281;DHT22;9266;51.132;17.062;2023-10-08T01:53:02;10.10;99.90
18281;DHT22;9266;51.132;17.062;2023-10-08T01:55:34;10.00;99.90
18281;DHT22;9266;51.132;17.062;2023-10-08T01:58:13;10.00;99.90
18281;DHT22;9266;51.132;17.062;2023-10-08T02:00:42;10.00;99.90
18281;DHT22;9266;51.132;17.062;2023-10-08T02:03:11;10.00;99.90
18281;DHT22;9266;51.132;17.062;2023-10-08T02:05:39;9.90;99.90
18281;DHT22;9266;51.132;17.062;2023-10-08T02:08:08;9.90;99.90
18281;DHT22;9266;51.132;17.062;2023-10-08T02:10:38;10.00;99.90
18281;DHT22;9266;51.132;17.062;2023-10-08T02:13:06;9.90;99.90
18281;DHT22;9266;51.132;17.062;2023-10-08T02:15:34;10.00;99.90
18281;DHT22;9266;51.132;17.062;2023-10-08T02:18:02;10.00;99.90
18281;DHT22;9266;51.132;17.062;2023-10-08T02:20:30;9.90;99.90
18281;DHT22;9266;51.132;17.062;2023-10-08T02:22:58;9.20;99.90
18281;DHT22;9266;51.132;17.062;2023-10-08T02:25:26;9.90;99.90
18281;DHT22;9266;51.132;17.062;2023-10-08T02:27:54;10.00;99.90
18281;DHT22;9266;51.132;17.062;2023-10-08T02:30:21;9.90;99.90
18281;DHT22;9266;51.132;17.062;2023-10-08T02:32:48;9.90;99.90
18281;DHT22;9266;51.132;17.062;2023-10-08T02:35:15;9.90;99.90
18281;DHT22;9266;51.132;17.062;2023-10-08T02:37:42;10.00;99.90
18281;DHT22;9266;51.132;17.062;2023-10-08T02:40:11;10.10;99.90
18281;DHT22;9266;51.132;17.062;2023-10-08T02:42:46;10.10;99.90
18281;DHT22;9266;51.132;17.062;2023-10-08T02:45:14;10.10;99.90
18281;DHT22;9266;51.132;17.062;2023-10-08T02:47:42;10.20;99.90
18281;DHT22;9266;51.132;17.062;2023-10-08T02:50:11;10.10;99.90
18281;DHT22;9266;51.132;17.062;2023-10-08T02:52:42;10.10;99.90
18281;DHT22;9266;51.132;17.062;2023-10-08T02:55:11;10.00;99.90
18281;DHT22;9266;51.132;17.062;2023-10-08T02:57:50;10.00;99.90
18281;DHT22;9266;51.132;17.062;2023-10-08T03:00:19;10.00;99.90
18281;DHT22;9266;51.132;17.062;2023-10-08T03:02:46;10.00;99.90
18281;DHT22;9266;51.132;17.062;2023-10-08T03:05:13;10.00;99.90
18281;DHT22;9266;51.132;17.062;2023-10-08T03:07:43;9.90;99.90
18281;DHT22;9266;51.132;17.062;2023-10-08T03:10:10;9.90;99.90
18281;DHT22;9266;51.132;17.062;2023-10-08T03:12:45;9.90;99.90
18281;DHT22;9266;51.132;17.062;2023-10-08T03:15:14;9.90;99.90
18281;DHT22;9266;51.132;17.062;2023-10-08T03:17:54;9.90;99.90
18281;DHT22;9266;51.132;17.062;2023-10-08T03:20:23;10.00;99.90
18281;DHT22;9266;51.132;17.062;2023-10-08T03:23:04;9.90;99.90
18281;DHT22;9266;51.132;17.062;2023-10-08T03:25:38;9.90;99.90
18281;DHT22;9266;51.132;17.062;2023-10-08T03:28:08;9.90;99.90
18281;DHT22;9266;51.132;17.062;2023-10-08T03:30:38;9.90;99.90
18281;DHT22;9266;51.132;17.062;2023-10-08T03:33:16;10.00;99.90
18281;DHT22;9266;51.132;17.062;2023-10-08T03:35:48;10.00;99.90
18281;DHT22;9266;51.132;17.062;2023-10-08T03:38:18;10.00;99.90
18281;DHT22;9266;51.132;17.062;2023-10-08T03:40:54;10.00;99.90
18281;DHT22;9266;51.132;17.062;2023-10-08T03:43:23;10.00;99.90
18281;DHT22;9266;51.132;17.062;2023-10-08T03:45:59;10.00;99.90
18281;DHT22;9266;51.132;17.062;2023-10-08T03:48:32;10.00;99.90
18281;DHT22;9266;51.132;17.062;2023-10-08T03:51:02;10.00;99.90
18281;DHT22;9266;51.132;17.062;2023-10-08T03:53:37;10.00;99.90
18281;DHT22;9266;51.132;17.062;2023-10-08T03:56:23;10.00;99.90
18281;DHT22;9266;51.132;17.062;2023-10-08T03:58:51;9.90;99.90
18281;DHT22;9266;51.132;17.062;2023-10-08T04:01:20;10.00;99.90
18281;DHT22;9266;51.132;17.062;2023-10-08T04:03:50;9.90;99.90
18281;DHT22;9266;51.132;17.062;2023-10-08T04:06:27;9.90;99.90
18281;DHT22;9266;51.132;17.062;2023-10-08T04:09:04;9.90;99.90
18281;DHT22;9266;51.132;17.062;2023-10-08T04:11:45;9.80;99.90
18281;DHT22;9266;51.132;17.062;2023-10-08T04:14:20;9.90;99.90
18281;DHT22;9266;51.132;17.062;2023-10-08T04:16:47;9.90;99.90
18281;DHT22;9266;51.132;17.062;2023-10-08T04:19:19;9.90;99.90
18281;DHT22;9266;51.132;17.062;2023-10-08T04:21:51;9.90;99.90
18281;DHT22;9266;51.132;17.062;2023-10-08T04:24:21;10.00;99.90
18281;DHT22;9266;51.132;17.062;2023-10-08T04:26:55;10.10;99.90
18281;DHT22;9266;51.132;17.062;2023-10-08T04:29:25;10.10;99.90
18281;DHT22;9266;51.132;17.062;2023-10-08T04:31:57;10.10;99.90
18281;DHT22;9266;51.132;17.062;2023-10-08T04:34:34;10.10;99.90
18281;DHT22;9266;51.132;17.062;2023-10-08T04:37:02;10.10;99.90
18281;DHT22;9266;51.132;17.062;2023-10-08T04:39:38;10.10;99.90
18281;DHT22;9266;51.132;17.062;2023-10-08T04:42:06;10.10;99.90
18281;DHT22;9266;51.132;17.062;2023-10-08T04:44:36;10.10;99.90
18281;DHT22;9266;51.132;17.062;2023-10-08T04:47:06;10.10;99.90
18281;DHT22;9266;51.132;17.062;2023-10-08T04:49:35;10.10;99.90
18281;DHT22;9266;51.132;17.062;2023-10-08T04:52:11;10.10;99.90
18281;DHT22;9266;51.132;17.062;2023-10-08T04:54:41;10.00;99.90
18281;DHT22;9266;51.132;17.062;2023-10-08T04:57:17;10.00;99.90
18281;DHT22;9266;51.132;17.062;2023-10-08T04:59:48;10.00;99.90
18281;DHT22;9266;51.132;17.062;2023-10-08T05:02:16;10.00;99.90
18281;DHT22;9266;51.132;17.062;2023-10-08T05:04:49;10.00;99.90
18281;DHT22;9266;51.132;17.062;2023-10-08T05:07:47;10.10;99.90
18281;DHT22;9266;51.132;17.062;2023-10-08T05:10:44;10.00;99.90
18281;DHT22;9266;51.132;17.062;2023-10-08T05:13:26;10.00;99.90
18281;DHT22;9266;51.132;17.062;2023-10-08T05:15:58;9.90;99.90
18281;DHT22;9266;51.132;17.062;2023-10-08T05:18:55;10.00;99.90
18281;DHT22;9266;51.132;17.062;2023-10-08T05:21:41;10.00;99.90
18281;DHT22;9266;51.132;17.062;2023-10-08T05:24:28;10.00;99.90
18281;DHT22;9266;51.132;17.062;2023-10-08T05:27:04;10.00;99.90
18281;DHT22;9266;51.132;17.062;2023-10-08T05:30:03;10.00;99.90
18281;DHT22;9266;51.132;17.062;2023-10-08T05:32:41;10.00;99.90
18281;DHT22;9266;51.132;17.062;2023-10-08T05:35:32;10.00;99.90
18281;DHT22;9266;51.132;17.062;2023-10-08T05:38:21;10.10;99.90
18281;DHT22;9266;51.132;17.062;2023-10-08T05:41:14;10.10;99.90
18281;DHT22;9266;51.132;17.062;2023-10-08T05:43:54;10.10;99.90
18281;DHT22;9266;51.132;17.062;2023-10-08T05:46:37;10.10;99.90
18281;DHT22;9266;51.132;17.062;2023-10-08T05:49:22;10.10;99.90
18281;DHT22;9266;51.132;17.062;2023-10-08T05:52:06;10.10;99.90
18281;DHT22;9266;51.132;17.062;2023-10-08T05:55:08;10.10;99.90
18281;DHT22;9266;51.132;17.062;2023-10-08T05:57:48;10.20;99.90
18281;DHT22;9266;51.132;17.062;2023-10-08T06:00:18;10.20;99.90
18281;DHT22;9266;51.132;17.062;2023-10-08T06:03:24;10.20;99.90
18281;DHT22;9266;51.132;17.062;2023-10-08T06:06:04;10.20;99.90
18281;DHT22;9266;51.132;17.062;2023-10-08T06:08:45;10.20;99.90
18281;DHT22;9266;51.132;17.062;2023-10-08T06:11:29;10.30;99.90
18281;DHT22;9266;51.132;17.062;2023-10-08T06:14:07;10.20;99.90
18281;DHT22;9266;51.132;17.062;2023-10-08T06:16:43;10.20;99.90
18281;DHT22;9266;51.132;17.062;2023-10-08T06:19:11;10.30;99.90
18281;DHT22;9266;51.132;17.062;2023-10-08T06:21:40;10.30;99.90
18281;DHT22;9266;51.132;17.062;2023-10-08T06:24:08;10.40;99.90
18281;DHT22;9266;51.132;17.062;2023-10-08T06:26:37;10.40;99.90
18281;DHT22;9266;51.132;17.062;2023-10-08T06:29:09;10.50;99.90
18281;DHT22;9266;51.132;17.062;2023-10-08T06:31:45;10.50;99.90
18281;DHT22;9266;51.132;17.062;2023-10-08T06:34:18;10.50;99.90
18281;DHT22;9266;51.132;17.062;2023-10-08T06:36:47;10.50;99.90
18281;DHT22;9266;51.132;17.062;2023-10-08T06:39:16;10.40;99.90
18281;DHT22;9266;51.132;17.062;2023-10-08T06:41:45;10.50;99.90
18281;DHT22;9266;51.132;17.062;2023-10-08T06:44:12;10.60;99.90
18281;DHT22;9266;51.132;17.062;2023-10-08T06:46:41;10.60;99.90
18281;DHT22;9266;51.132;17.062;2023-10-08T06:49:08;10.70;99.90
18281;DHT22;9266;51.132;17.062;2023-10-08T06:51:40;11.20;99.90
18281;DHT22;9266;51.132;17.062;2023-10-08T06:54:09;11.40;99.90
18281;DHT22;9266;51.132;17.062;2023-10-08T06:56:39;12.10;99.90
18281;DHT22;9266;51.132;17.062;2023-10-08T06:59:12;11.90;99.90
18281;DHT22;9266;51.132;17.062;2023-10-08T07:01:39;12.10;99.90
18281;DHT22;9266;51.132;17.062;2023-10-08T07:04:06;11.30;1.00
18281;DHT22;9266;51.132;17.062;2023-10-08T07:06:37;11.10;1.00
18281;DHT22;9266;51.132;17.062;2023-10-08T07:09:07;11.40;99.90
18281;DHT22;9266;51.132;17.062;2023-10-08T07:11:48;11.90;99.90
18281;DHT22;9266;51.132;17.062;2023-10-08T07:14:20;12.30;1.00
18281;DHT22;9266;51.132;17.062;2023-10-08T07:16:48;12.90;99.90
18281;DHT22;9266;51.132;17.062;2023-10-08T07:19:18;12.50;99.90
18281;DHT22;9266;51.132;17.062;2023-10-08T07:21:45;11.90;15.40
18281;DHT22;9266;51.132;17.062;2023-10-08T07:24:14;11.60;1.00
18281;DHT22;9266;51.132;17.062;2023-10-08T07:26:47;11.40;99.90
18281;DHT22;9266;51.132;17.062;2023-10-08T07:29:16;11.50;1.00
18281;DHT22;9266;51.132;17.062;2023-10-08T07:31:44;11.10;99.90
18281;DHT22;9266;51.132;17.062;2023-10-08T07:34:15;11.10;99.90
18281;DHT22;9266;51.132;17.062;2023-10-08T07:36:44;11.70;1.00
18281;DHT22;9266;51.132;17.062;2023-10-08T07:39:14;12.00;99.90
18281;DHT22;9266;51.132;17.062;2023-10-08T07:41:52;12.20;99.90
18281;DHT22;9266;51.132;17.062;2023-10-08T07:44:21;12.40;1.00
18281;DHT22;9266;51.132;17.062;2023-10-08T07:46:49;12.50;99.90
18281;DHT22;9266;51.132;17.062;2023-10-08T07:49:17;12.60;25.80
18281;DHT22;9266;51.132;17.062;2023-10-08T07:51:44;13.10;1.00
18281;DHT22;9266;51.132;17.062;2023-10-08T07:54:18;13.00;1.00
18281;DHT22;9266;51.132;17.062;2023-10-08T07:56:47;13.30;99.90
18281;DHT22;9266;51.132;17.062;2023-10-08T07:59:14;13.60;99.90
18281;DHT22;9266;51.132;17.062;2023-10-08T08:01:42;13.80;99.90
18281;DHT22;9266;51.132;17.062;2023-10-08T08:04:10;12.60;99.90
18281;DHT22;9266;51.132;17.062;2023-10-08T08:06:47;11.40;1.00
18281;DHT22;9266;51.132;17.062;2023-10-08T08:09:17;11.10;99.90
18281;DHT22;9266;51.132;17.062;2023-10-08T08:11:46;11.40;72.30
18281;DHT22;9266;51.132;17.062;2023-10-08T08:14:14;11.80;1.00
18281;DHT22;9266;51.132;17.062;2023-10-08T08:16:43;12.00;99.90
18281;DHT22;9266;51.132;17.062;2023-10-08T08:19:14;12.10;99.90
18281;DHT22;9266;51.132;17.062;2023-10-08T08:21:42;12.00;1.00
18281;DHT22;9266;51.132;17.062;2023-10-08T08:24:12;11.80;1.00
18281;DHT22;9266;51.132;17.062;2023-10-08T08:26:41;11.90;1.00
18281;DHT22;9266;51.132;17.062;2023-10-08T08:29:27;11.70;1.00
18281;DHT22;9266;51.132;17.062;2023-10-08T08:31:54;11.60;1.00
18281;DHT22;9266;51.132;17.062;2023-10-08T08:34:22;11.60;1.00
18281;DHT22;9266;51.132;17.062;2023-10-08T08:36:50;11.60;1.00
18281;DHT22;9266;51.132;17.062;2023-10-08T08:39:17;11.50;1.00
18281;DHT22;9266;51.132;17.062;2023-10-08T08:42:00;11.40;1.00
18281;DHT22;9266;51.132;17.062;2023-10-08T08:44:28;11.30;1.00
18281;DHT22;9266;51.132;17.062;2023-10-08T08:47:00;11.20;1.00
18281;DHT22;9266;51.132;17.062;2023-10-08T08:49:32;11.20;1.00
18281;DHT22;9266;51.132;17.062;2023-10-08T08:52:00;11.20;1.00
18281;DHT22;9266;51.132;17.062;2023-10-08T08:54:27;11.20;1.00
18281;DHT22;9266;51.132;17.062;2023-10-08T08:56:57;11.20;1.00
18281;DHT22;9266;51.132;17.062;2023-10-08T08:59:26;11.40;1.00
18281;DHT22;9266;51.132;17.062;2023-10-08T09:01:56;11.40;1.00
18281;DHT22;9266;51.132;17.062;2023-10-08T09:04:29;11.40;1.00
18281;DHT22;9266;51.132;17.062;2023-10-08T09:06:57;11.40;1.00
18281;DHT22;9266;51.132;17.062;2023-10-08T09:09:31;11.50;1.00
18281;DHT22;9266;51.132;17.062;2023-10-08T09:11:59;11.50;99.90
18281;DHT22;9266;51.132;17.062;2023-10-08T09:14:28;11.40;1.00
18281;DHT22;9266;51.132;17.062;2023-10-08T09:16:58;11.40;99.90
18281;DHT22;9266;51.132;17.062;2023-10-08T09:19:26;11.40;1.00
18281;DHT22;9266;51.132;17.062;2023-10-08T09:22:00;11.50;99.90
18281;DHT22;9266;51.132;17.062;2023-10-08T09:24:30;11.50;99.90
18281;DHT22;9266;51.132;17.062;2023-10-08T09:26:57;11.50;99.90
18281;DHT22;9266;51.132;17.062;2023-10-08T09:29:24;11.50;99.90
18281;DHT22;9266;51.132;17.062;2023-10-08T09:31:55;11.40;99.90
18281;DHT22;9266;51.132;17.062;2023-10-08T09:34:26;11.40;99.90
18281;DHT22;9266;51.132;17.062;2023-10-08T09:36:55;11.30;99.90
18281;DHT22;9266;51.132;17.062;2023-10-08T09:39:22;10.90;99.90
18281;DHT22;9266;51.132;17.062;2023-10-08T09:41:53;11.50;99.90
18281;DHT22;9266;51.132;17.062;2023-10-08T09:44:22;11.50;99.90
18281;DHT22;9266;51.132;17.062;2023-10-08T09:46:54;11.60;99.90
18281;DHT22;9266;51.132;17.062;2023-10-08T09:49:30;11.50;99.90
18281;DHT22;9266;51.132;17.062;2023-10-08T09:52:01;11.60;99.90
18281;DHT22;9266;51.132;17.062;2023-10-08T09:54:30;11.80;99.90
18281;DHT22;9266;51.132;17.062;2023-10-08T09:57:03;11.80;99.90
18281;DHT22;9266;51.132;17.062;2023-10-08T09:59:32;11.90;99.90
18281;DHT22;9266;51.132;17.062;2023-10-08T10:02:02;12.00;99.90
18281;DHT22;9266;51.132;17.062;2023-10-08T10:04:31;12.00;99.90
18281;DHT22;9266;51.132;17.062;2023-10-08T10:06:59;11.90;99.90
18281;DHT22;9266;51.132;17.062;2023-10-08T10:09:33;11.70;99.90
18281;DHT22;9266;51.132;17.062;2023-10-08T10:12:02;11.70;99.90
18281;DHT22;9266;51.132;17.062;2023-10-08T10:14:41;11.90;99.90
18281;DHT22;9266;51.132;17.062;2023-10-08T10:17:12;12.00;99.90
18281;DHT22;9266;51.132;17.062;2023-10-08T10:19:40;12.00;99.90
18281;DHT22;9266;51.132;17.062;2023-10-08T10:22:13;11.80;99.90
18281;DHT22;9266;51.132;17.062;2023-10-08T10:24:41;11.70;99.90
18281;DHT22;9266;51.132;17.062;2023-10-08T10:27:15;11.80;99.90
18281;DHT22;9266;51.132;17.062;2023-10-08T10:29:43;12.00;99.90
18281;DHT22;9266;51.132;17.062;2023-10-08T10:32:15;11.90;99.90
18281;DHT22;9266;51.132;17.062;2023-10-08T10:34:43;12.00;99.90
18281;DHT22;9266;51.132;17.062;2023-10-08T10:37:13;11.90;99.90
18281;DHT22;9266;51.132;17.062;2023-10-08T10:39:53;11.90;99.90
18281;DHT22;9266;51.132;17.062;2023-10-08T10:42:22;12.10;99.90
18281;DHT22;9266;51.132;17.062;2023-10-08T10:44:50;12.00;99.90
18281;DHT22;9266;51.132;17.062;2023-10-08T10:47:20;11.90;1.00
18281;DHT22;9266;51.132;17.062;2023-10-08T10:49:53;12.10;1.00
18281;DHT22;9266;51.132;17.062;2023-10-08T10:52:21;12.10;1.00
18281;DHT22;9266;51.132;17.062;2023-10-08T10:55:11;12.10;1.00
18281;DHT22;9266;51.132;17.062;2023-10-08T10:57:50;12.20;1.00
18281;DHT22;9266;51.132;17.062;2023-10-08T11:00:20;12.10;1.00
18281;DHT22;9266;51.132;17.062;2023-10-08T11:03:03;12.40;1.00
18281;DHT22;9266;51.132;17.062;2023-10-08T11:05:42;12.40;1.00
18281;DHT22;9266;51.132;17.062;2023-10-08T11:08:14;12.30;1.00
18281;DHT22;9266;51.132;17.062;2023-10-08T11:10:44;12.50;1.00
18281;DHT22;9266;51.132;17.062;2023-10-08T11:13:15;12.60;1.00
18281;DHT22;9266;51.132;17.062;2023-10-08T11:15:42;12.60;1.00
18281;DHT22;9266;51.132;17.062;2023-10-08T11:18:17;12.50;1.00
18281;DHT22;9266;51.132;17.062;2023-10-08T11:20:44;12.60;1.00
18281;DHT22;9266;51.132;17.062;2023-10-08T11:25:55;12.30;1.00
18281;DHT22;9266;51.132;17.062;2023-10-08T11:28:26;12.60;1.00
18281;DHT22;9266;51.132;17.062;2023-10-08T11:30:54;12.60;1.00
18281;DHT22;9266;51.132;17.062;2023-10-08T11:33:26;12.60;1.00
18281;DHT22;9266;51.132;17.062;2023-10-08T11:35:56;12.70;1.00
18281;DHT22;9266;51.132;17.062;2023-10-08T11:38:24;12.80;1.00
18281;DHT22;9266;51.132;17.062;2023-10-08T11:40:53;12.60;1.00
18281;DHT22;9266;51.132;17.062;2023-10-08T11:43:22;12.50;1.00
18281;DHT22;9266;51.132;17.062;2023-10-08T11:45:49;12.40;1.00
18281;DHT22;9266;51.132;17.062;2023-10-08T11:48:16;12.60;1.00
18281;DHT22;9266;51.132;17.062;2023-10-08T11:50:52;12.60;1.00
18281;DHT22;9266;51.132;17.062;2023-10-08T11:53:23;12.50;1.00
18281;DHT22;9266;51.132;17.062;2023-10-08T11:55:50;13.30;1.00
18281;DHT22;9266;51.132;17.062;2023-10-08T11:58:22;12.80;1.00
18281;DHT22;9266;51.132;17.062;2023-10-08T12:01:03;12.80;1.00
18281;DHT22;9266;51.132;17.062;2023-10-08T12:03:30;12.90;1.00
18281;DHT22;9266;51.132;17.062;2023-10-08T12:06:02;12.90;1.00
18281;DHT22;9266;51.132;17.062;2023-10-08T12:08:30;12.80;1.00
18281;DHT22;9266;51.132;17.062;2023-10-08T12:11:04;12.90;1.00
18281;DHT22;9266;51.132;17.062;2023-10-08T12:13:37;12.80;1.00
18281;DHT22;9266;51.132;17.062;2023-10-08T12:16:04;12.80;1.00
18281;DHT22;9266;51.132;17.062;2023-10-08T12:18:38;12.70;1.00
18281;DHT22;9266;51.132;17.062;2023-10-08T12:21:08;12.80;1.00
18281;DHT22;9266;51.132;17.062;2023-10-08T12:23:37;12.80;1.00
18281;DHT22;9266;51.132;17.062;2023-10-08T12:26:04;12.70;1.00
18281;DHT22;9266;51.132;17.062;2023-10-08T12:28:33;12.70;1.00
18281;DHT22;9266;51.132;17.062;2023-10-08T12:31:02;12.90;1.00
18281;DHT22;9266;51.132;17.062;2023-10-08T12:33:29;13.00;1.00
18281;DHT22;9266;51.132;17.062;2023-10-08T12:35:57;13.00;1.00
18281;DHT22;9266;51.132;17.062;2023-10-08T12:38:37;12.80;1.00
18281;DHT22;9266;51.132;17.062;2023-10-08T12:41:04;12.60;1.00
18281;DHT22;9266;51.132;17.062;2023-10-08T12:43:38;12.80;1.00
18281;DHT22;9266;51.132;17.062;2023-10-08T12:46:08;12.90;1.00
18281;DHT22;9266;51.132;17.062;2023-10-08T12:48:41;12.90;1.00
18281;DHT22;9266;51.132;17.062;2023-10-08T12:51:15;13.00;1.00
18281;DHT22;9266;51.132;17.062;2023-10-08T12:53:44;13.00;1.00
18281;DHT22;9266;51.132;17.062;2023-10-08T12:56:24;13.10;1.00
18281;DHT22;9266;51.132;17.062;2023-10-08T12:58:58;13.30;1.00
18281;DHT22;9266;51.132;17.062;2023-10-08T13:01:25;12.00;1.00
18281;DHT22;9266;51.132;17.062;2023-10-08T13:03:55;13.10;1.00
18281;DHT22;9266;51.132;17.062;2023-10-08T13:06:27;13.10;1.00
18281;DHT22;9266;51.132;17.062;2023-10-08T13:08:56;13.10;1.00
18281;DHT22;9266;51.132;17.062;2023-10-08T13:11:24;13.00;1.00
18281;DHT22;9266;51.132;17.062;2023-10-08T13:13:52;13.00;1.00
18281;DHT22;9266;51.132;17.062;2023-10-08T13:16:22;13.00;1.00
18281;DHT22;9266;51.132;17.062;2023-10-08T13:18:50;13.00;1.00
18281;DHT22;9266;51.132;17.062;2023-10-08T13:21:18;13.00;1.00
18281;DHT22;9266;51.132;17.062;2023-10-08T13:23:45;12.90;1.00
18281;DHT22;9266;51.132;17.062;2023-10-08T13:26:16;12.80;1.00
18281;DHT22;9266;51.132;17.062;2023-10-08T13:28:44;12.80;1.00
18281;DHT22;9266;51.132;17.062;2023-10-08T13:31:11;12.80;1.00
18281;DHT22;9266;51.132;17.062;2023-10-08T13:33:39;12.90;1.00
18281;DHT22;9266;51.132;17.062;2023-10-08T13:36:08;12.90;1.00
18281;DHT22;9266;51.132;17.062;2023-10-08T13:38:35;12.90;1.00
18281;DHT22;9266;51.132;17.062;2023-10-08T13:41:03;12.80;1.00
18281;DHT22;9266;51.132;17.062;2023-10-08T13:43:33;12.90;1.00
18281;DHT22;9266;51.132;17.062;2023-10-08T13:46:01;12.90;1.00
18281;DHT22;9266;51.132;17.062;2023-10-08T13:48:30;13.10;1.00
18281;DHT22;9266;51.132;17.062;2023-10-08T13:51:01;13.10;1.00
18281;DHT22;9266;51.132;17.062;2023-10-08T13:53:30;13.10;1.00
18281;DHT22;9266;51.132;17.062;2023-10-08T13:55:59;13.10;1.00
18281;DHT22;9266;51.132;17.062;2023-10-08T13:58:28;13.20;1.00
18281;DHT22;9266;51.132;17.062;2023-10-08T14:01:02;13.10;1.00
18281;DHT22;9266;51.132;17.062;2023-10-08T14:03:44;13.10;1.00
18281;DHT22;9266;51.132;17.062;2023-10-08T14:06:11;13.20;1.00
18281;DHT22;9266;51.132;17.062;2023-10-08T14:08:38;13.20;1.00
18281;DHT22;9266;51.132;17.062;2023-10-08T14:11:09;13.10;1.00
18281;DHT22;9266;51.132;17.062;2023-10-08T14:13:38;13.00;1.00
18281;DHT22;9266;51.132;17.062;2023-10-08T14:16:09;13.10;1.00
18281;DHT22;9266;51.132;17.062;2023-10-08T14:18:37;13.00;1.00
18281;DHT22;9266;51.132;17.062;2023-10-08T14:21:07;13.10;1.00
18281;DHT22;9266;51.132;17.062;2023-10-08T14:23:36;13.10;1.00
18281;DHT22;9266;51.132;17.062;2023-10-08T14:26:06;13.10;1.00
18281;DHT22;9266;51.132;17.062;2023-10-08T14:28:33;12.90;1.00
18281;DHT22;9266;51.132;17.062;2023-10-08T14:31:18;12.80;1.00
18281;DHT22;9266;51.132;17.062;2023-10-08T14:33:48;12.80;1.00
18281;DHT22;9266;51.132;17.062;2023-10-08T14:36:44;12.80;1.00
18281;DHT22;9266;51.132;17.062;2023-10-08T14:39:29;13.00;1.00
18281;DHT22;9266;51.132;17.062;2023-10-08T14:42:10;13.00;1.00
18281;DHT22;9266;51.132;17.062;2023-10-08T14:44:55;13.00;1.00
18281;DHT22;9266;51.132;17.062;2023-10-08T14:47:23;13.00;1.00
18281;DHT22;9266;51.132;17.062;2023-10-08T14:49:50;13.10;1.00
18281;DHT22;9266;51.132;17.062;2023-10-08T14:52:18;13.00;1.00
18281;DHT22;9266;51.132;17.062;2023-10-08T14:54:45;12.90;1.00
18281;DHT22;9266;51.132;17.062;2023-10-08T14:57:12;13.00;1.00
18281;DHT22;9266;51.132;17.062;2023-10-08T14:59:40;13.00;1.00
18281;DHT22;9266;51.132;17.062;2023-10-08T15:02:08;12.90;1.00
18281;DHT22;9266;51.132;17.062;2023-10-08T15:04:37;12.90;1.00
18281;DHT22;9266;51.132;17.062;2023-10-08T15:07:06;12.80;1.00
18281;DHT22;9266;51.132;17.062;2023-10-08T15:09:36;12.80;1.00
18281;DHT22;9266;51.132;17.062;2023-10-08T15:12:05;12.70;1.00
18281;DHT22;9266;51.132;17.062;2023-10-08T15:14:33;12.60;1.00
18281;DHT22;9266;51.132;17.062;2023-10-08T15:17:00;12.60;1.00
18281;DHT22;9266;51.132;17.062;2023-10-08T15:19:27;12.50;1.00
18281;DHT22;9266;51.132;17.062;2023-10-08T15:21:56;12.50;1.00
18281;DHT22;9266;51.132;17.062;2023-10-08T15:24:24;12.50;1.00
18281;DHT22;9266;51.132;17.062;2023-10-08T15:26:51;12.50;1.00
18281;DHT22;9266;51.132;17.062;2023-10-08T15:29:19;12.60;1.00
18281;DHT22;9266;51.132;17.062;2023-10-08T15:31:46;12.60;1.00
18281;DHT22;9266;51.132;17.062;2023-10-08T15:34:15;12.60;1.00
18281;DHT22;9266;51.132;17.062;2023-10-08T15:36:42;12.60;1.00
18281;DHT22;9266;51.132;17.062;2023-10-08T15:39:10;12.30;1.00
18281;DHT22;9266;51.132;17.062;2023-10-08T15:41:39;12.30;1.00
18281;DHT22;9266;51.132;17.062;2023-10-08T15:44:09;12.20;1.00
18281;DHT22;9266;51.132;17.062;2023-10-08T15:46:35;12.10;1.00
18281;DHT22;9266;51.132;17.062;2023-10-08T15:49:02;12.10;1.00
18281;DHT22;9266;51.132;17.062;2023-10-08T15:51:29;12.00;1.00
18281;DHT22;9266;51.132;17.062;2023-10-08T15:53:57;12.00;1.00
18281;DHT22;9266;51.132;17.062;2023-10-08T15:56:27;11.90;1.00
18281;DHT22;9266;51.132;17.062;2023-10-08T15:58:54;11.90;1.00
18281;DHT22;9266;51.132;17.062;2023-10-08T16:01:21;11.80;1.00
18281;DHT22;9266;51.132;17.062;2023-10-08T16:03:48;11.80;1.00
18281;DHT22;9266;51.132;17.062;2023-10-08T16:06:16;11.70;1.00
18281;DHT22;9266;51.132;17.062;2023-10-08T16:08:44;11.60;1.00